Impacts TAF Board
For situational awareness. Not to be used for flight planning purposes.
IDs:

KSAN - San Diego Intl Arpt, CA, US

Issued at 1459 UTC 01 Mar 2021
Updated at 1701 UTC 01 Mar 2021
Potential Impact None Slight Moderate High
Time1651Z 01/17Z 01/18Z 01/19Z 01/20Z 01/21Z 01/22Z 01/23Z 02/00Z 02/01Z 02/02Z 02/03Z 02/04Z 02/05Z>>
Type OBS PRVL PRVL PRVL PRVL PRVL PRVL PRVL PRVL PRVL PRVL PRVL PRVL PRVL
VIS 10 >6 >6 >6 >6 >6 >6 >6 >6 >6 >6 >6 >6 >6
CIG -- -- -- -- -- -- -- -- -- -- -- -- -- --
Cover CLR FEW FEW FEW SKC SKC SKC SKC SKC SKC SKC SKC SKC SKC
FltCat VFR VFR VFR VFR VFR VFR VFR VFR VFR VFR VFR VFR VFR VFR
WX -- -- -- -- -- -- -- -- -- -- -- -- -- --
WDir VRB VRB VRB VRB 290 290 290 290 290 290 VRB VRB VRB VRB
WSpd 0 4 4 4 8 8 8 8 8 8 4 4 4 4
WGst -- -- -- -- -- -- -- -- -- -- -- -- -- --
Raw TAF
KSAN 011459Z 0115/0218 VRB04KT P6SM FEW010
  FM012000 29008KT P6SM SKC
  FM020200 VRB04KT P6SM SKC


Raw METAR
KSAN 011651Z 00000KT 10SM CLR 17/M04 A3021 RMK AO2 SLP230 T01671039
KSAN 011551Z 22003KT 10SM CLR 14/M03 A3021 RMK AO2 SLP230 T01441033
KSAN 011451Z 00000KT 10SM FEW010 11/M06 A3021 RMK AO2 SLP228 T01061061 53003
KSAN 011351Z 03005KT 10SM CLR 09/M06 A3020 RMK AO2 SLP224 T00941056

METAR Board
Radar Display
Forecast Discussion
For situational awareness. Not to be used for flight planning purposes.